createdAt,value
2023-02-17T00:02:29.000Z,0.24
2023-02-17T00:05:31.862Z,0.28
2023-02-17T00:08:35.647Z,0.41
2023-02-17T00:11:38.494Z,0.49
2023-02-17T00:14:41.544Z,0.41
2023-02-17T00:17:44.626Z,0.39
2023-02-17T00:20:47.650Z,0.43
2023-02-17T00:23:51.384Z,0.34
2023-02-17T00:26:54.546Z,0.40
2023-02-17T00:29:58.430Z,0.21
2023-02-17T00:33:03.234Z,0.30
2023-02-17T00:36:08.849Z,0.42
2023-02-17T00:39:17.665Z,0.40
2023-02-17T00:42:21.802Z,0.41
2023-02-17T00:45:24.710Z,0.38
2023-02-17T00:48:27.542Z,0.47
2023-02-17T00:51:30.515Z,0.54
2023-02-17T00:54:33.582Z,0.55
2023-02-17T00:57:37.524Z,0.65
2023-02-17T01:00:40.481Z,0.63
2023-02-17T01:03:44.487Z,0.64
2023-02-17T01:06:47.695Z,0.63
2023-02-17T01:09:50.592Z,0.62
2023-02-17T01:12:54.749Z,0.67
2023-02-17T01:15:58.941Z,0.72
2023-02-17T01:19:13.610Z,0.78
2023-02-17T01:22:16.549Z,0.89
2023-02-17T01:25:19.519Z,0.82
2023-02-17T01:28:23.096Z,0.80
2023-02-17T01:31:27.731Z,0.74
2023-02-17T01:34:30.778Z,0.65
2023-02-17T01:37:35.395Z,0.56
2023-02-17T01:40:45.610Z,0.66
2023-02-17T01:44:18.912Z,0.69
2023-02-17T01:47:21.726Z,0.66
2023-02-17T01:50:30.769Z,0.71
2023-02-17T01:53:42.530Z,0.65
2023-02-17T01:56:48.663Z,0.65
2023-02-17T01:59:52.571Z,0.61
2023-02-17T02:02:56.071Z,0.54
2023-02-17T02:06:00.661Z,0.49
2023-02-17T02:09:12.786Z,0.57
2023-02-17T02:12:25.385Z,0.69
2023-02-17T02:15:35.058Z,0.68
2023-02-17T02:18:51.699Z,0.68
2023-02-17T02:22:36.650Z,0.57
2023-02-17T02:25:46.345Z,0.57
2023-02-17T02:29:10.580Z,0.41
2023-02-17T02:32:29.130Z,0.37
2023-02-17T02:35:35.113Z,0.53
2023-02-17T02:38:57.695Z,0.54
2023-02-17T02:42:13.201Z,0.44
2023-02-17T02:45:18.380Z,0.34
2023-02-17T02:48:24.110Z,0.33
2023-02-17T02:51:40.288Z,0.25
2023-02-17T02:55:08.363Z,0.27
2023-02-17T02:58:20.457Z,0.36
2023-02-17T03:01:54.160Z,0.44
2023-02-17T03:05:25.171Z,0.39
2023-02-17T03:08:57.936Z,0.42
2023-02-17T03:12:01.082Z,0.27
2023-02-17T03:15:19.742Z,0.24
2023-02-17T03:18:22.624Z,0.16
2023-02-17T03:21:35.478Z,0.09
2023-02-17T03:24:38.582Z,0.14
2023-02-17T03:27:44.042Z,0.20
2023-02-17T03:30:48.001Z,0.11
2023-02-17T03:33:53.737Z,0.16
2023-02-17T03:36:56.713Z,0.16
2023-02-17T03:39:59.577Z,0.16
2023-02-17T03:43:02.557Z,0.22
2023-02-17T03:46:05.926Z,0.41
2023-02-17T03:49:09.080Z,0.42
2023-02-17T03:52:12.044Z,0.27
2023-02-17T03:55:14.996Z,0.22
2023-02-17T03:58:17.848Z,0.29
2023-02-17T04:01:21.787Z,0.21
2023-02-17T04:04:24.948Z,0.08
2023-02-17T04:07:28.171Z,0.17
2023-02-17T04:10:31.286Z,0.12
2023-02-17T04:13:35.501Z,0.11
2023-02-17T04:16:39.440Z,-0.11
2023-02-17T04:19:42.372Z,0.08
2023-02-17T04:22:46.387Z,0.09
2023-02-17T04:25:49.943Z,0.21
2023-02-17T04:28:52.945Z,0.27
2023-02-17T04:31:56.002Z,0.32
2023-02-17T04:34:58.900Z,0.20
2023-02-17T04:38:01.960Z,0.16
2023-02-17T04:41:07.173Z,0.21
2023-02-17T04:44:10.198Z,0.21
2023-02-17T04:47:13.050Z,0.30
2023-02-17T04:50:16.050Z,0.26
2023-02-17T04:53:19.355Z,0.37
2023-02-17T04:56:22.259Z,0.37
2023-02-17T04:59:25.702Z,0.44
2023-02-17T05:02:28.926Z,0.39
2023-02-17T05:05:31.947Z,0.47
2023-02-17T05:08:34.900Z,0.53
2023-02-17T05:11:37.798Z,0.54
2023-02-17T05:14:40.735Z,0.48
2023-02-17T05:17:43.648Z,0.57
2023-02-17T05:20:46.525Z,0.57
2023-02-17T05:23:49.443Z,0.63
2023-02-17T05:26:52.356Z,0.62
2023-02-17T05:29:56.021Z,0.61
2023-02-17T05:33:01.006Z,0.63
2023-02-17T05:36:07.136Z,0.69
2023-02-17T05:39:10.436Z,0.83
2023-02-17T05:42:17.160Z,0.78
2023-02-17T05:45:20.141Z,0.88
2023-02-17T05:48:23.085Z,1.15
2023-02-17T05:51:26.014Z,1.19
2023-02-17T05:54:28.834Z,1.21
2023-02-17T05:57:32.384Z,1.37
2023-02-17T06:00:35.370Z,1.30
2023-02-17T06:03:39.126Z,1.39
2023-02-17T06:06:42.123Z,1.46
2023-02-17T06:09:47.159Z,1.60
2023-02-17T06:12:50.223Z,1.62
2023-02-17T06:15:59.046Z,1.72
2023-02-17T06:19:02.653Z,1.51
2023-02-17T06:22:05.956Z,1.62
2023-02-17T06:25:09.202Z,1.69
2023-02-17T06:28:12.995Z,1.73
2023-02-17T06:31:16.949Z,1.79
2023-02-17T06:34:19.880Z,1.77
2023-02-17T06:37:23.963Z,1.76
2023-02-17T06:40:28.748Z,1.75
2023-02-17T06:43:37.435Z,1.94
2023-02-17T06:46:46.441Z,2.04
2023-02-17T06:49:49.649Z,2.03
2023-02-17T06:52:53.629Z,2.04
2023-02-17T06:55:57.454Z,2.17
2023-02-17T06:59:01.893Z,2.15
2023-02-17T07:02:08.926Z,2.28
2023-02-17T07:05:34.333Z,2.45
2023-02-17T07:08:48.212Z,2.43
2023-02-17T07:11:52.522Z,2.43
2023-02-17T07:14:58.295Z,2.54
2023-02-17T07:18:03.804Z,2.53
2023-02-17T07:21:09.338Z,2.65
2023-02-17T07:24:14.466Z,2.68
2023-02-17T07:27:17.424Z,2.59
2023-02-17T07:30:37.026Z,2.73
2023-02-17T07:33:41.404Z,2.72
2023-02-17T07:36:44.880Z,2.91
2023-02-17T07:39:57.260Z,3.11
2023-02-17T07:43:00.765Z,3.23
2023-02-17T07:46:09.564Z,3.16
2023-02-17T07:53:32.430Z,3.76
2023-02-17T08:00:45.616Z,4.40
2023-02-17T08:03:58.676Z,4.92
2023-02-17T08:07:24.529Z,5.27
2023-02-17T08:10:52.795Z,5.41
2023-02-17T08:14:01.693Z,5.77
2023-02-17T08:17:09.183Z,6.43
2023-02-17T08:20:15.687Z,6.76
2023-02-17T08:23:23.699Z,6.60
2023-02-17T08:29:48.188Z,7.07
2023-02-17T08:32:53.776Z,7.39
2023-02-17T08:36:07.556Z,7.74
2023-02-17T08:39:23.370Z,8.45
2023-02-17T08:42:45.262Z,8.55
2023-02-17T08:50:04.148Z,7.93
2023-02-17T08:53:55.659Z,7.57
2023-02-17T09:08:16.621Z,7.45
2023-02-17T09:11:33.541Z,7.42
2023-02-17T09:14:40.203Z,7.44
2023-02-17T09:17:52.726Z,7.44
2023-02-17T09:21:03.191Z,7.37
2023-02-17T09:24:08.020Z,7.46
2023-02-17T09:27:23.493Z,7.38
2023-02-17T09:30:40.164Z,7.01
2023-02-17T09:34:31.032Z,6.78
2023-02-17T09:37:43.663Z,6.47
2023-02-17T09:40:50.501Z,6.38
2023-02-17T09:43:58.691Z,6.47
2023-02-17T09:47:15.233Z,6.66
2023-02-17T09:50:47.677Z,6.93
2023-02-17T09:54:23.822Z,6.85
2023-02-17T09:57:39.636Z,7.02
2023-02-17T10:00:47.262Z,7.20
2023-02-17T10:03:56.377Z,7.22
2023-02-17T10:07:08.148Z,7.28
2023-02-17T10:10:47.830Z,7.49
2023-02-17T10:13:57.565Z,7.73
2023-02-17T10:17:11.593Z,7.92
2023-02-17T10:20:31.780Z,8.15
2023-02-17T10:23:35.428Z,8.30
2023-02-17T10:26:51.142Z,8.44
2023-02-17T10:30:14.668Z,8.51
2023-02-17T10:33:45.100Z,8.70
2023-02-17T10:37:02.189Z,8.93
2023-02-17T10:40:23.007Z,9.00
2023-02-17T10:43:38.131Z,9.12
2023-02-17T10:46:43.425Z,9.57
2023-02-17T10:49:58.464Z,9.54
2023-02-17T10:53:02.015Z,9.71
2023-02-17T10:56:23.005Z,9.96
2023-02-17T10:59:33.673Z,10.16
2023-02-17T11:02:41.471Z,10.45
2023-02-17T11:05:44.435Z,11.16
2023-02-17T11:09:02.217Z,11.08
2023-02-17T11:12:25.025Z,11.35
2023-02-17T11:15:38.079Z,11.44
2023-02-17T11:18:49.407Z,11.65
2023-02-17T11:21:54.825Z,12.00
2023-02-17T11:25:00.403Z,12.09
2023-02-17T11:28:24.981Z,12.15
2023-02-17T11:31:38.067Z,12.16
2023-02-17T11:34:47.228Z,12.26
2023-02-17T11:38:01.465Z,12.27
2023-02-17T11:41:07.711Z,12.33
2023-02-17T11:44:29.456Z,12.52
2023-02-17T11:47:53.781Z,12.70
2023-02-17T11:51:27.387Z,12.68
2023-02-17T11:54:49.171Z,12.63
2023-02-17T11:58:02.044Z,12.74
2023-02-17T12:01:42.439Z,13.04
2023-02-17T12:04:50.995Z,13.10
2023-02-17T12:08:31.660Z,13.22
2023-02-17T12:11:52.635Z,13.35
2023-02-17T12:15:28.630Z,13.43
2023-02-17T12:18:44.334Z,13.57
2023-02-17T12:22:19.575Z,13.68
2023-02-17T12:25:38.466Z,13.69
2023-02-17T12:29:08.503Z,13.55
2023-02-17T12:32:55.420Z,13.35
2023-02-17T12:36:08.281Z,13.23
2023-02-17T12:39:30.857Z,13.25
2023-02-17T12:43:03.358Z,13.30
2023-02-17T12:46:17.163Z,13.27
2023-02-17T12:50:01.839Z,13.34
2023-02-17T12:53:49.965Z,13.41
2023-02-17T12:56:59.754Z,13.53
2023-02-17T13:00:20.957Z,13.62
2023-02-17T13:03:25.174Z,13.60
2023-02-17T13:06:39.850Z,13.67
2023-02-17T13:09:46.842Z,13.68
2023-02-17T13:13:30.487Z,13.56
2023-02-17T13:16:43.465Z,13.58
2023-02-17T13:20:02.723Z,13.50
2023-02-17T13:23:11.301Z,13.39
2023-02-17T13:26:25.919Z,13.27
2023-02-17T13:29:35.844Z,13.18
2023-02-17T13:32:39.508Z,13.21
2023-02-17T13:35:43.662Z,13.20
2023-02-17T13:39:08.537Z,13.25
2023-02-17T13:42:38.144Z,13.36
2023-02-17T13:45:47.082Z,13.43
2023-02-17T13:49:05.589Z,13.47
2023-02-17T13:52:22.393Z,13.45
2023-02-17T13:55:26.052Z,13.59
2023-02-17T13:58:32.284Z,13.65
2023-02-17T14:01:44.071Z,13.80
2023-02-17T14:04:50.408Z,13.93
2023-02-17T14:08:03.491Z,13.85
2023-02-17T14:11:13.251Z,13.85
2023-02-17T14:14:17.592Z,13.85
2023-02-17T14:17:33.143Z,13.80
2023-02-17T14:20:36.609Z,13.84
2023-02-17T14:23:55.047Z,13.79
2023-02-17T14:27:04.269Z,13.75
2023-02-17T14:30:12.766Z,13.79
2023-02-17T14:33:17.091Z,13.72
2023-02-17T14:36:37.148Z,13.73
2023-02-17T14:39:40.284Z,13.69
2023-02-17T14:42:44.597Z,13.70
2023-02-17T14:45:48.378Z,13.73
2023-02-17T14:48:53.322Z,13.83
2023-02-17T14:51:57.069Z,13.78
2023-02-17T14:55:00.377Z,13.69
2023-02-17T14:58:03.910Z,13.67
2023-02-17T15:01:07.198Z,13.72
2023-02-17T15:04:10.322Z,13.70
2023-02-17T15:07:17.048Z,13.60
2023-02-17T15:10:28.259Z,13.52
2023-02-17T15:13:32.341Z,13.56
2023-02-17T15:16:35.918Z,12.76
2023-02-17T15:19:39.091Z,11.69
2023-02-17T15:22:44.407Z,12.03
2023-02-17T15:25:48.504Z,12.52
2023-02-17T15:28:51.832Z,12.77
2023-02-17T15:32:02.026Z,12.95
2023-02-17T15:35:18.699Z,12.94
2023-02-17T15:38:27.265Z,13.07
2023-02-17T15:41:31.619Z,13.10
2023-02-17T15:44:45.146Z,13.04
2023-02-17T15:47:50.600Z,13.05
2023-02-17T15:50:54.483Z,13.06
2023-02-17T15:54:01.855Z,13.06
2023-02-17T15:57:07.795Z,12.97
2023-02-17T16:00:23.534Z,12.93
2023-02-17T16:03:26.662Z,12.88
2023-02-17T16:06:30.363Z,12.89
2023-02-17T16:09:33.583Z,12.84
2023-02-17T16:12:36.942Z,12.72
2023-02-17T16:15:40.272Z,12.64
2023-02-17T16:18:43.501Z,12.71
2023-02-17T16:21:48.011Z,12.59
2023-02-17T16:24:51.218Z,12.53
2023-02-17T16:27:55.182Z,12.52
2023-02-17T16:30:58.684Z,12.62
2023-02-17T16:34:04.474Z,12.60
2023-02-17T16:37:16.657Z,12.54
2023-02-17T16:40:24.051Z,12.50
2023-02-17T16:43:27.965Z,12.55
2023-02-17T16:46:35.633Z,12.62
2023-02-17T16:49:42.098Z,12.51
2023-02-17T16:52:45.878Z,12.51
2023-02-17T16:55:50.819Z,12.51
2023-02-17T16:58:54.049Z,12.42
2023-02-17T17:01:58.199Z,12.58
2023-02-17T17:05:01.760Z,12.62
2023-02-17T17:08:06.984Z,12.59
2023-02-17T17:11:20.313Z,12.58
2023-02-17T17:14:24.877Z,12.49
2023-02-17T17:17:32.181Z,12.47
2023-02-17T17:20:40.829Z,12.38
2023-02-17T17:23:52.962Z,12.30
2023-02-17T17:27:02.292Z,12.21
2023-02-17T17:30:07.930Z,12.27
2023-02-17T17:33:16.437Z,12.16
2023-02-17T17:36:26.793Z,12.23
2023-02-17T17:39:30.067Z,12.35
2023-02-17T17:42:37.739Z,12.35
2023-02-17T17:45:41.072Z,12.28
2023-02-17T17:48:44.833Z,12.19
2023-02-17T17:51:48.796Z,12.20
2023-02-17T17:54:52.087Z,12.12
2023-02-17T17:57:59.307Z,12.11
2023-02-17T18:01:12.940Z,12.20
2023-02-17T18:04:19.628Z,12.19
2023-02-17T18:07:23.724Z,12.11
2023-02-17T18:10:26.776Z,12.26
2023-02-17T18:13:30.309Z,12.20
2023-02-17T18:16:34.682Z,12.36
2023-02-17T18:19:39.828Z,12.30
2023-02-17T18:22:45.800Z,12.37
2023-02-17T18:25:49.416Z,12.40
2023-02-17T18:28:53.829Z,12.46
2023-02-17T18:31:59.246Z,12.41
2023-02-17T18:35:03.896Z,12.47
2023-02-17T18:38:15.016Z,12.53
2023-02-17T18:41:30.345Z,12.57
2023-02-17T18:44:36.261Z,12.55
2023-02-17T18:47:39.851Z,12.54
2023-02-17T18:50:44.294Z,12.56
2023-02-17T18:53:51.272Z,12.65
2023-02-17T18:56:54.740Z,12.60
2023-02-17T19:00:01.665Z,12.63
2023-02-17T19:03:06.080Z,12.55
2023-02-17T19:06:17.332Z,12.52
2023-02-17T19:09:20.577Z,12.52
2023-02-17T19:12:26.823Z,12.55
2023-02-17T19:15:30.223Z,12.63
2023-02-17T19:18:33.614Z,12.72
2023-02-17T19:21:36.931Z,12.68
2023-02-17T19:24:41.809Z,12.77
2023-02-17T19:27:44.988Z,12.78
2023-02-17T19:30:48.912Z,12.59
2023-02-17T19:33:52.007Z,12.56
2023-02-17T19:36:55.992Z,12.55
2023-02-17T19:40:02.160Z,12.58
2023-02-17T19:43:05.615Z,12.50
2023-02-17T19:46:13.167Z,12.53
2023-02-17T19:49:16.574Z,12.59
2023-02-17T19:52:21.158Z,12.59
2023-02-17T19:55:25.265Z,12.56
2023-02-17T19:58:28.296Z,12.60
2023-02-17T20:01:33.756Z,12.65
2023-02-17T20:04:36.945Z,12.52
2023-02-17T20:07:40.251Z,12.52
2023-02-17T20:10:43.615Z,12.46
2023-02-17T20:13:47.406Z,12.48
2023-02-17T20:16:53.351Z,12.53
2023-02-17T20:19:56.586Z,12.52
2023-02-17T20:22:59.868Z,12.45
2023-02-17T20:26:11.780Z,12.50
2023-02-17T20:29:15.118Z,12.30
2023-02-17T20:32:18.717Z,12.37
2023-02-17T20:35:22.076Z,12.48
2023-02-17T20:38:25.587Z,12.32
2023-02-17T20:41:29.421Z,12.41
2023-02-17T20:44:32.712Z,12.44
2023-02-17T20:47:37.970Z,12.40
2023-02-17T20:50:41.846Z,12.39
2023-02-17T20:53:44.974Z,12.37
2023-02-17T20:56:48.662Z,12.38
2023-02-17T20:59:51.866Z,12.42
2023-02-17T21:02:57.537Z,12.40
2023-02-17T21:06:06.944Z,12.37
2023-02-17T21:09:16.855Z,12.23
2023-02-17T21:12:21.525Z,12.27
2023-02-17T21:15:24.910Z,12.35
2023-02-17T21:18:28.442Z,12.29
2023-02-17T21:21:31.843Z,12.15
2023-02-17T21:24:34.939Z,12.30
2023-02-17T21:27:38.055Z,12.39
2023-02-17T21:30:41.171Z,12.38
2023-02-17T21:33:44.619Z,12.27
2023-02-17T21:36:47.756Z,12.20
2023-02-17T21:39:50.736Z,12.14
2023-02-17T21:43:12.367Z,12.18
2023-02-17T21:46:15.531Z,12.14
2023-02-17T21:49:18.713Z,12.26
2023-02-17T21:52:22.339Z,12.23
2023-02-17T21:55:26.492Z,12.27
2023-02-17T21:58:29.781Z,12.33
2023-02-17T22:01:32.834Z,12.36
2023-02-17T22:04:35.858Z,12.26
2023-02-17T22:07:39.037Z,12.05
2023-02-17T22:10:43.163Z,12.02
2023-02-17T22:13:46.407Z,11.82
2023-02-17T22:16:49.853Z,11.80
2023-02-17T22:19:53.148Z,11.90
2023-02-17T22:22:56.102Z,11.95
2023-02-17T22:25:59.065Z,11.74
2023-02-17T22:29:02.088Z,11.62
2023-02-17T22:32:05.371Z,11.63
2023-02-17T22:35:08.749Z,11.57
2023-02-17T22:38:11.723Z,11.49
2023-02-17T22:41:17.693Z,11.42
2023-02-17T22:44:20.650Z,11.40
2023-02-17T22:47:23.594Z,11.24
2023-02-17T22:50:26.485Z,11.05
2023-02-17T22:53:29.322Z,10.94
2023-02-17T22:56:32.513Z,10.63
2023-02-17T22:59:35.894Z,10.39
2023-02-17T23:02:38.967Z,10.22
2023-02-17T23:05:43.156Z,10.09
2023-02-17T23:08:49.696Z,10.13
2023-02-17T23:11:57.637Z,10.02
2023-02-17T23:15:00.995Z,9.94
2023-02-17T23:18:03.938Z,10.12
2023-02-17T23:21:12.846Z,10.11
2023-02-17T23:24:16.929Z,10.16
2023-02-17T23:27:19.993Z,10.02
2023-02-17T23:30:23.451Z,9.90
2023-02-17T23:33:26.375Z,9.73
2023-02-17T23:36:29.193Z,9.36
2023-02-17T23:39:32.158Z,8.76
2023-02-17T23:42:36.908Z,8.99
2023-02-17T23:45:39.809Z,8.77
2023-02-17T23:48:42.829Z,8.59
2023-02-17T23:51:47.004Z,8.41
2023-02-17T23:54:51.309Z,8.48
2023-02-17T23:57:54.190Z,8.55
